sensor_id;sensor_type;location;lat;lon;timestamp;temperature;humidity
73277;DHT22;61501;43.316;5.372;2024-03-02T00:02:24;11.70;99.80
73277;DHT22;61501;43.316;5.372;2024-03-02T00:04:50;11.60;99.90
73277;DHT22;61501;43.316;5.372;2024-03-02T00:07:17;11.70;99.90
73277;DHT22;61501;43.316;5.372;2024-03-02T00:09:43;11.70;99.90
73277;DHT22;61501;43.316;5.372;2024-03-02T00:12:11;11.70;99.90
73277;DHT22;61501;43.316;5.372;2024-03-02T00:14:41;11.60;99.90
73277;DHT22;61501;43.316;5.372;2024-03-02T00:17:17;11.60;99.90
73277;DHT22;61501;43.316;5.372;2024-03-02T00:19:46;11.60;99.90
73277;DHT22;61501;43.316;5.372;2024-03-02T00:22:12;11.60;99.90
73277;DHT22;61501;43.316;5.372;2024-03-02T00:24:38;11.60;99.90
73277;DHT22;61501;43.316;5.372;2024-03-02T00:27:05;11.60;99.90
73277;DHT22;61501;43.316;5.372;2024-03-02T00:29:32;11.60;99.90
73277;DHT22;61501;43.316;5.372;2024-03-02T00:32:01;11.60;99.90
73277;DHT22;61501;43.316;5.372;2024-03-02T00:34:26;11.60;99.90
73277;DHT22;61501;43.316;5.372;2024-03-02T00:36:52;11.60;99.90
73277;DHT22;61501;43.316;5.372;2024-03-02T00:39:18;11.50;99.90
73277;DHT22;61501;43.316;5.372;2024-03-02T00:41:44;11.60;99.90
73277;DHT22;61501;43.316;5.372;2024-03-02T00:44:12;11.60;99.90
73277;DHT22;61501;43.316;5.372;2024-03-02T00:46:39;11.60;99.90
73277;DHT22;61501;43.316;5.372;2024-03-02T00:49:25;11.60;99.90
73277;DHT22;61501;43.316;5.372;2024-03-02T00:51:53;11.60;99.90
73277;DHT22;61501;43.316;5.372;2024-03-02T00:54:23;11.60;99.90
73277;DHT22;61501;43.316;5.372;2024-03-02T00:57:11;11.60;99.90
73277;DHT22;61501;43.316;5.372;2024-03-02T00:59:37;11.70;99.90
73277;DHT22;61501;43.316;5.372;2024-03-02T01:02:03;11.70;99.90
73277;DHT22;61501;43.316;5.372;2024-03-02T01:04:29;11.70;99.90
73277;DHT22;61501;43.316;5.372;2024-03-02T01:06:55;11.70;99.90
73277;DHT22;61501;43.316;5.372;2024-03-02T01:09:20;11.70;99.90
73277;DHT22;61501;43.316;5.372;2024-03-02T01:11:46;11.70;99.90
73277;DHT22;61501;43.316;5.372;2024-03-02T01:14:12;11.60;99.90
73277;DHT22;61501;43.316;5.372;2024-03-02T01:16:37;11.60;99.90
73277;DHT22;61501;43.316;5.372;2024-03-02T01:19:03;11.60;99.90
73277;DHT22;61501;43.316;5.372;2024-03-02T01:21:29;11.60;99.90
73277;DHT22;61501;43.316;5.372;2024-03-02T01:23:54;11.60;99.90
73277;DHT22;61501;43.316;5.372;2024-03-02T01:26:20;11.50;99.90
73277;DHT22;61501;43.316;5.372;2024-03-02T01:28:46;11.50;99.90
73277;DHT22;61501;43.316;5.372;2024-03-02T01:31:11;11.50;99.90
73277;DHT22;61501;43.316;5.372;2024-03-02T01:33:37;11.50;99.90
73277;DHT22;61501;43.316;5.372;2024-03-02T01:36:03;11.50;99.90
73277;DHT22;61501;43.316;5.372;2024-03-02T01:38:28;11.50;99.90
73277;DHT22;61501;43.316;5.372;2024-03-02T01:40:54;11.50;99.90
73277;DHT22;61501;43.316;5.372;2024-03-02T01:43:23;11.50;99.90
73277;DHT22;61501;43.316;5.372;2024-03-02T01:45:49;11.50;99.90
73277;DHT22;61501;43.316;5.372;2024-03-02T01:48:15;11.50;99.90
73277;DHT22;61501;43.316;5.372;2024-03-02T01:50:40;11.40;99.90
73277;DHT22;61501;43.316;5.372;2024-03-02T01:53:08;11.40;99.90
73277;DHT22;61501;43.316;5.372;2024-03-02T01:55:34;11.40;99.90
73277;DHT22;61501;43.316;5.372;2024-03-02T01:58:00;11.40;99.90
73277;DHT22;61501;43.316;5.372;2024-03-02T02:00:26;11.50;99.90
73277;DHT22;61501;43.316;5.372;2024-03-02T02:02:52;11.50;99.90
73277;DHT22;61501;43.316;5.372;2024-03-02T02:05:18;11.50;99.90
73277;DHT22;61501;43.316;5.372;2024-03-02T02:07:43;11.50;99.90
73277;DHT22;61501;43.316;5.372;2024-03-02T02:10:12;11.50;99.90
73277;DHT22;61501;43.316;5.372;2024-03-02T02:12:38;11.40;99.90
73277;DHT22;61501;43.316;5.372;2024-03-02T02:15:25;11.40;99.90
73277;DHT22;61501;43.316;5.372;2024-03-02T02:17:51;11.50;99.90
73277;DHT22;61501;43.316;5.372;2024-03-02T02:20:16;11.40;99.90
73277;DHT22;61501;43.316;5.372;2024-03-02T02:23:02;11.40;99.90
73277;DHT22;61501;43.316;5.372;2024-03-02T02:25:29;11.40;99.90
73277;DHT22;61501;43.316;5.372;2024-03-02T02:27:55;11.40;99.90
73277;DHT22;61501;43.316;5.372;2024-03-02T02:30:29;11.30;99.90
73277;DHT22;61501;43.316;5.372;2024-03-02T02:32:55;11.30;99.90
73277;DHT22;61501;43.316;5.372;2024-03-02T02:35:23;11.40;99.90
73277;DHT22;61501;43.316;5.372;2024-03-02T02:37:54;11.30;99.90
73277;DHT22;61501;43.316;5.372;2024-03-02T02:40:20;11.30;99.90
73277;DHT22;61501;43.316;5.372;2024-03-02T02:42:46;11.20;99.90
73277;DHT22;61501;43.316;5.372;2024-03-02T02:45:12;11.20;99.90
73277;DHT22;61501;43.316;5.372;2024-03-02T02:47:43;11.20;99.90
73277;DHT22;61501;43.316;5.372;2024-03-02T02:50:09;11.20;99.90
73277;DHT22;61501;43.316;5.372;2024-03-02T02:52:36;11.20;99.90
73277;DHT22;61501;43.316;5.372;2024-03-02T02:55:04;11.20;99.90
73277;DHT22;61501;43.316;5.372;2024-03-02T02:57:31;11.20;99.90
73277;DHT22;61501;43.316;5.372;2024-03-02T03:00:22;11.20;99.90
73277;DHT22;61501;43.316;5.372;2024-03-02T03:02:48;11.20;99.90
73277;DHT22;61501;43.316;5.372;2024-03-02T03:05:15;11.20;99.90
73277;DHT22;61501;43.316;5.372;2024-03-02T03:07:41;11.20;99.90
73277;DHT22;61501;43.316;5.372;2024-03-02T03:10:07;11.20;99.90
73277;DHT22;61501;43.316;5.372;2024-03-02T03:12:34;11.20;99.90
73277;DHT22;61501;43.316;5.372;2024-03-02T03:15:00;11.20;99.90
73277;DHT22;61501;43.316;5.372;2024-03-02T03:17:26;11.20;99.90
73277;DHT22;61501;43.316;5.372;2024-03-02T03:19:52;11.20;99.90
73277;DHT22;61501;43.316;5.372;2024-03-02T03:22:18;11.10;99.90
73277;DHT22;61501;43.316;5.372;2024-03-02T03:24:44;11.10;99.90
73277;DHT22;61501;43.316;5.372;2024-03-02T03:27:10;11.10;99.90
73277;DHT22;61501;43.316;5.372;2024-03-02T03:29:36;11.10;99.90
73277;DHT22;61501;43.316;5.372;2024-03-02T03:32:02;11.10;99.90
73277;DHT22;61501;43.316;5.372;2024-03-02T03:34:32;11.10;99.90
73277;DHT22;61501;43.316;5.372;2024-03-02T03:36:58;11.00;99.90
73277;DHT22;61501;43.316;5.372;2024-03-02T03:39:26;11.00;99.90
73277;DHT22;61501;43.316;5.372;2024-03-02T03:41:52;11.00;99.90
73277;DHT22;61501;43.316;5.372;2024-03-02T03:44:18;11.00;99.90
73277;DHT22;61501;43.316;5.372;2024-03-02T03:46:43;11.00;99.90
73277;DHT22;61501;43.316;5.372;2024-03-02T03:49:09;11.00;99.90
73277;DHT22;61501;43.316;5.372;2024-03-02T03:51:34;10.90;99.90
73277;DHT22;61501;43.316;5.372;2024-03-02T03:54:01;11.00;99.90
73277;DHT22;61501;43.316;5.372;2024-03-02T03:56:26;10.90;99.90
73277;DHT22;61501;43.316;5.372;2024-03-02T03:58:52;11.00;99.90
73277;DHT22;61501;43.316;5.372;2024-03-02T04:01:18;10.90;99.90
73277;DHT22;61501;43.316;5.372;2024-03-02T04:03:43;10.90;99.90
73277;DHT22;61501;43.316;5.372;2024-03-02T04:06:09;10.90;99.90
73277;DHT22;61501;43.316;5.372;2024-03-02T04:08:34;10.80;99.90
73277;DHT22;61501;43.316;5.372;2024-03-02T04:11:00;10.80;99.90
73277;DHT22;61501;43.316;5.372;2024-03-02T04:13:28;10.80;99.90
73277;DHT22;61501;43.316;5.372;2024-03-02T04:15:53;10.70;99.90
73277;DHT22;61501;43.316;5.372;2024-03-02T04:18:19;10.70;99.90
73277;DHT22;61501;43.316;5.372;2024-03-02T04:20:45;10.70;99.90
73277;DHT22;61501;43.316;5.372;2024-03-02T04:23:10;10.70;99.90
73277;DHT22;61501;43.316;5.372;2024-03-02T04:25:36;10.80;99.90
73277;DHT22;61501;43.316;5.372;2024-03-02T04:28:01;10.80;99.90
73277;DHT22;61501;43.316;5.372;2024-03-02T04:30:27;10.70;99.90
73277;DHT22;61501;43.316;5.372;2024-03-02T04:32:53;10.70;99.90
73277;DHT22;61501;43.316;5.372;2024-03-02T04:35:19;10.70;99.90
73277;DHT22;61501;43.316;5.372;2024-03-02T04:37:44;10.70;99.90
73277;DHT22;61501;43.316;5.372;2024-03-02T04:40:10;10.70;99.90
73277;DHT22;61501;43.316;5.372;2024-03-02T04:42:36;10.60;99.90
73277;DHT22;61501;43.316;5.372;2024-03-02T04:45:02;10.60;99.90
73277;DHT22;61501;43.316;5.372;2024-03-02T04:47:28;10.60;99.90
73277;DHT22;61501;43.316;5.372;2024-03-02T04:49:54;10.60;99.90
73277;DHT22;61501;43.316;5.372;2024-03-02T04:52:19;10.60;99.90
73277;DHT22;61501;43.316;5.372;2024-03-02T04:54:45;10.60;99.90
73277;DHT22;61501;43.316;5.372;2024-03-02T04:57:29;10.60;99.90
73277;DHT22;61501;43.316;5.372;2024-03-02T04:59:54;10.70;99.90
73277;DHT22;61501;43.316;5.372;2024-03-02T05:02:20;10.60;99.90
73277;DHT22;61501;43.316;5.372;2024-03-02T05:04:46;10.60;99.90
73277;DHT22;61501;43.316;5.372;2024-03-02T05:07:13;10.60;99.90
73277;DHT22;61501;43.316;5.372;2024-03-02T05:09:39;10.70;99.90
73277;DHT22;61501;43.316;5.372;2024-03-02T05:12:05;10.80;99.90
73277;DHT22;61501;43.316;5.372;2024-03-02T05:14:49;10.70;99.90
73277;DHT22;61501;43.316;5.372;2024-03-02T05:17:15;10.70;99.90
73277;DHT22;61501;43.316;5.372;2024-03-02T05:19:40;10.60;99.90
73277;DHT22;61501;43.316;5.372;2024-03-02T05:22:06;10.60;99.90
73277;DHT22;61501;43.316;5.372;2024-03-02T05:24:31;10.50;99.90
73277;DHT22;61501;43.316;5.372;2024-03-02T05:26:57;10.50;99.90
73277;DHT22;61501;43.316;5.372;2024-03-02T05:29:22;10.50;99.90
73277;DHT22;61501;43.316;5.372;2024-03-02T05:31:48;10.50;99.90
73277;DHT22;61501;43.316;5.372;2024-03-02T05:34:14;10.50;99.90
73277;DHT22;61501;43.316;5.372;2024-03-02T05:36:40;10.40;99.90
73277;DHT22;61501;43.316;5.372;2024-03-02T05:39:05;10.30;99.90
73277;DHT22;61501;43.316;5.372;2024-03-02T05:41:34;10.30;99.90
73277;DHT22;61501;43.316;5.372;2024-03-02T05:44:00;10.30;99.90
73277;DHT22;61501;43.316;5.372;2024-03-02T05:46:26;10.40;99.90
73277;DHT22;61501;43.316;5.372;2024-03-02T05:48:52;10.40;99.90
73277;DHT22;61501;43.316;5.372;2024-03-02T05:51:17;10.40;99.90
73277;DHT22;61501;43.316;5.372;2024-03-02T05:53:43;10.30;99.90
73277;DHT22;61501;43.316;5.372;2024-03-02T05:56:09;10.40;99.90
73277;DHT22;61501;43.316;5.372;2024-03-02T05:58:35;10.30;99.90
73277;DHT22;61501;43.316;5.372;2024-03-02T06:01:03;10.30;99.90
73277;DHT22;61501;43.316;5.372;2024-03-02T06:03:30;10.30;99.90
73277;DHT22;61501;43.316;5.372;2024-03-02T06:05:55;10.30;99.90
73277;DHT22;61501;43.316;5.372;2024-03-02T06:08:21;10.30;99.90
73277;DHT22;61501;43.316;5.372;2024-03-02T06:10:47;10.30;99.90
73277;DHT22;61501;43.316;5.372;2024-03-02T06:13:12;10.30;99.90
73277;DHT22;61501;43.316;5.372;2024-03-02T06:15:38;10.30;99.90
73277;DHT22;61501;43.316;5.372;2024-03-02T06:18:04;10.30;99.90
73277;DHT22;61501;43.316;5.372;2024-03-02T06:20:29;10.20;99.90
73277;DHT22;61501;43.316;5.372;2024-03-02T06:22:59;10.30;99.90
73277;DHT22;61501;43.316;5.372;2024-03-02T06:25:24;10.20;99.90
73277;DHT22;61501;43.316;5.372;2024-03-02T06:27:50;10.30;99.90
73277;DHT22;61501;43.316;5.372;2024-03-02T06:30:15;10.30;99.90
73277;DHT22;61501;43.316;5.372;2024-03-02T06:32:41;10.30;99.90
73277;DHT22;61501;43.316;5.372;2024-03-02T06:35:07;10.30;99.90
73277;DHT22;61501;43.316;5.372;2024-03-02T06:37:36;10.30;99.90
73277;DHT22;61501;43.316;5.372;2024-03-02T06:40:01;10.40;99.90
73277;DHT22;61501;43.316;5.372;2024-03-02T06:42:28;10.40;99.90
73277;DHT22;61501;43.316;5.372;2024-03-02T06:45:02;10.40;99.90
73277;DHT22;61501;43.316;5.372;2024-03-02T06:47:28;10.40;99.90
73277;DHT22;61501;43.316;5.372;2024-03-02T06:49:54;10.40;99.90
73277;DHT22;61501;43.316;5.372;2024-03-02T06:52:20;10.50;99.90
73277;DHT22;61501;43.316;5.372;2024-03-02T06:54:46;10.50;99.90
73277;DHT22;61501;43.316;5.372;2024-03-02T06:57:12;10.50;99.90
73277;DHT22;61501;43.316;5.372;2024-03-02T06:59:37;10.50;99.90
73277;DHT22;61501;43.316;5.372;2024-03-02T07:02:03;10.60;99.90
73277;DHT22;61501;43.316;5.372;2024-03-02T07:04:31;10.70;99.90
73277;DHT22;61501;43.316;5.372;2024-03-02T07:06:57;10.70;99.90
73277;DHT22;61501;43.316;5.372;2024-03-02T07:09:23;10.80;99.90
73277;DHT22;61501;43.316;5.372;2024-03-02T07:11:49;10.80;99.90
73277;DHT22;61501;43.316;5.372;2024-03-02T07:14:15;11.00;99.90
73277;DHT22;61501;43.316;5.372;2024-03-02T07:16:40;11.10;99.90
73277;DHT22;61501;43.316;5.372;2024-03-02T07:19:08;11.10;99.90
73277;DHT22;61501;43.316;5.372;2024-03-02T07:21:34;11.20;99.90
73277;DHT22;61501;43.316;5.372;2024-03-02T07:23:59;11.40;99.90
73277;DHT22;61501;43.316;5.372;2024-03-02T07:26:28;11.40;99.90
73277;DHT22;61501;43.316;5.372;2024-03-02T07:28:55;11.40;99.90
73277;DHT22;61501;43.316;5.372;2024-03-02T07:31:21;11.50;99.90
73277;DHT22;61501;43.316;5.372;2024-03-02T07:33:46;11.60;99.90
73277;DHT22;61501;43.316;5.372;2024-03-02T07:36:12;11.60;99.90
73277;DHT22;61501;43.316;5.372;2024-03-02T07:38:38;11.80;99.90
73277;DHT22;61501;43.316;5.372;2024-03-02T07:41:04;11.90;99.90
73277;DHT22;61501;43.316;5.372;2024-03-02T07:43:30;12.10;99.90
73277;DHT22;61501;43.316;5.372;2024-03-02T07:45:57;12.20;99.90
73277;DHT22;61501;43.316;5.372;2024-03-02T07:48:23;12.30;99.90
73277;DHT22;61501;43.316;5.372;2024-03-02T07:50:48;12.40;99.90
73277;DHT22;61501;43.316;5.372;2024-03-02T07:53:14;12.40;99.90
73277;DHT22;61501;43.316;5.372;2024-03-02T07:55:40;12.50;99.90
73277;DHT22;61501;43.316;5.372;2024-03-02T07:58:06;12.60;99.90
73277;DHT22;61501;43.316;5.372;2024-03-02T08:00:32;12.60;99.90
73277;DHT22;61501;43.316;5.372;2024-03-02T08:02:57;12.70;99.90
73277;DHT22;61501;43.316;5.372;2024-03-02T08:05:23;12.60;99.90
73277;DHT22;61501;43.316;5.372;2024-03-02T08:07:49;12.70;99.90
73277;DHT22;61501;43.316;5.372;2024-03-02T08:10:18;12.70;99.90
73277;DHT22;61501;43.316;5.372;2024-03-02T08:12:44;12.70;99.90
73277;DHT22;61501;43.316;5.372;2024-03-02T08:15:10;12.80;99.90
73277;DHT22;61501;43.316;5.372;2024-03-02T08:17:35;12.80;99.90
73277;DHT22;61501;43.316;5.372;2024-03-02T08:20:01;12.80;99.90
73277;DHT22;61501;43.316;5.372;2024-03-02T08:22:27;12.90;99.90
73277;DHT22;61501;43.316;5.372;2024-03-02T08:24:53;13.10;99.90
73277;DHT22;61501;43.316;5.372;2024-03-02T08:27:19;13.10;99.90
73277;DHT22;61501;43.316;5.372;2024-03-02T08:29:45;13.20;99.90
73277;DHT22;61501;43.316;5.372;2024-03-02T08:32:11;13.30;99.90
73277;DHT22;61501;43.316;5.372;2024-03-02T08:34:36;13.40;99.90
73277;DHT22;61501;43.316;5.372;2024-03-02T08:37:02;13.50;99.90
73277;DHT22;61501;43.316;5.372;2024-03-02T08:39:31;13.50;99.90
73277;DHT22;61501;43.316;5.372;2024-03-02T08:41:57;13.60;99.90
73277;DHT22;61501;43.316;5.372;2024-03-02T08:44:23;13.70;99.90
73277;DHT22;61501;43.316;5.372;2024-03-02T08:46:48;13.80;99.90
73277;DHT22;61501;43.316;5.372;2024-03-02T08:49:14;13.70;99.90
73277;DHT22;61501;43.316;5.372;2024-03-02T08:51:39;13.80;99.90
73277;DHT22;61501;43.316;5.372;2024-03-02T08:54:05;13.80;99.90
73277;DHT22;61501;43.316;5.372;2024-03-02T08:56:31;13.90;99.90
73277;DHT22;61501;43.316;5.372;2024-03-02T08:58:57;13.80;99.90
73277;DHT22;61501;43.316;5.372;2024-03-02T09:01:22;14.00;99.90
73277;DHT22;61501;43.316;5.372;2024-03-02T09:03:48;14.00;99.90
73277;DHT22;61501;43.316;5.372;2024-03-02T09:06:15;14.10;99.90
73277;DHT22;61501;43.316;5.372;2024-03-02T09:08:42;14.00;99.90
73277;DHT22;61501;43.316;5.372;2024-03-02T09:11:10;14.00;99.90
73277;DHT22;61501;43.316;5.372;2024-03-02T09:13:38;14.10;99.90
73277;DHT22;61501;43.316;5.372;2024-03-02T09:16:04;14.10;99.90
73277;DHT22;61501;43.316;5.372;2024-03-02T09:18:30;14.00;99.90
73277;DHT22;61501;43.316;5.372;2024-03-02T09:20:56;14.20;99.90
73277;DHT22;61501;43.316;5.372;2024-03-02T09:23:22;14.20;99.90
73277;DHT22;61501;43.316;5.372;2024-03-02T09:25:47;14.20;99.90
73277;DHT22;61501;43.316;5.372;2024-03-02T09:28:15;14.30;99.90
73277;DHT22;61501;43.316;5.372;2024-03-02T09:30:41;14.30;99.90
73277;DHT22;61501;43.316;5.372;2024-03-02T09:33:06;14.40;99.90
73277;DHT22;61501;43.316;5.372;2024-03-02T09:35:32;14.50;99.90
73277;DHT22;61501;43.316;5.372;2024-03-02T09:37:58;14.50;99.90
73277;DHT22;61501;43.316;5.372;2024-03-02T09:40:23;14.40;99.90
73277;DHT22;61501;43.316;5.372;2024-03-02T09:42:50;14.60;99.90
73277;DHT22;61501;43.316;5.372;2024-03-02T09:45:25;14.70;99.90
73277;DHT22;61501;43.316;5.372;2024-03-02T09:47:50;14.70;99.90
73277;DHT22;61501;43.316;5.372;2024-03-02T09:50:16;14.70;99.90
73277;DHT22;61501;43.316;5.372;2024-03-02T09:52:43;14.80;99.90
73277;DHT22;61501;43.316;5.372;2024-03-02T09:55:09;14.80;99.90
73277;DHT22;61501;43.316;5.372;2024-03-02T09:57:35;14.80;99.90
73277;DHT22;61501;43.316;5.372;2024-03-02T10:00:00;14.80;99.90
73277;DHT22;61501;43.316;5.372;2024-03-02T10:02:26;14.90;99.90
73277;DHT22;61501;43.316;5.372;2024-03-02T10:04:51;15.00;99.90
73277;DHT22;61501;43.316;5.372;2024-03-02T10:07:18;15.20;99.90
73277;DHT22;61501;43.316;5.372;2024-03-02T10:09:45;15.30;99.90
73277;DHT22;61501;43.316;5.372;2024-03-02T10:12:12;15.40;99.90
73277;DHT22;61501;43.316;5.372;2024-03-02T10:14:39;15.40;99.90
73277;DHT22;61501;43.316;5.372;2024-03-02T10:17:08;15.30;99.90
73277;DHT22;61501;43.316;5.372;2024-03-02T10:19:35;15.30;99.90
73277;DHT22;61501;43.316;5.372;2024-03-02T10:22:03;15.40;99.90
73277;DHT22;61501;43.316;5.372;2024-03-02T10:24:44;15.30;99.90
73277;DHT22;61501;43.316;5.372;2024-03-02T10:27:14;15.30;99.90
73277;DHT22;61501;43.316;5.372;2024-03-02T10:29:41;15.40;99.90
73277;DHT22;61501;43.316;5.372;2024-03-02T10:32:10;15.40;99.90
73277;DHT22;61501;43.316;5.372;2024-03-02T10:34:40;15.50;99.90
73277;DHT22;61501;43.316;5.372;2024-03-02T10:37:06;15.50;99.90
73277;DHT22;61501;43.316;5.372;2024-03-02T10:39:35;15.60;99.90
73277;DHT22;61501;43.316;5.372;2024-03-02T10:42:02;15.60;99.90
73277;DHT22;61501;43.316;5.372;2024-03-02T10:44:30;15.40;99.90
73277;DHT22;61501;43.316;5.372;2024-03-02T10:46:56;15.40;99.90
73277;DHT22;61501;43.316;5.372;2024-03-02T10:49:23;15.40;99.90
73277;DHT22;61501;43.316;5.372;2024-03-02T10:51:49;15.40;99.90
73277;DHT22;61501;43.316;5.372;2024-03-02T10:54:15;15.30;99.90
73277;DHT22;61501;43.316;5.372;2024-03-02T10:56:44;15.30;99.90
73277;DHT22;61501;43.316;5.372;2024-03-02T11:02:00;15.20;99.90
73277;DHT22;61501;43.316;5.372;2024-03-02T11:04:27;15.40;99.90
73277;DHT22;61501;43.316;5.372;2024-03-02T11:07:04;15.40;99.90
73277;DHT22;61501;43.316;5.372;2024-03-02T11:09:35;15.50;99.90
73277;DHT22;61501;43.316;5.372;2024-03-02T11:12:19;15.70;99.90
73277;DHT22;61501;43.316;5.372;2024-03-02T11:14:48;16.00;99.90
73277;DHT22;61501;43.316;5.372;2024-03-02T11:17:17;16.00;99.90
73277;DHT22;61501;43.316;5.372;2024-03-02T11:19:44;15.90;99.90
73277;DHT22;61501;43.316;5.372;2024-03-02T11:22:11;15.80;99.90
73277;DHT22;61501;43.316;5.372;2024-03-02T11:24:38;15.70;99.90
73277;DHT22;61501;43.316;5.372;2024-03-02T11:27:05;15.60;99.90
73277;DHT22;61501;43.316;5.372;2024-03-02T11:32:12;15.60;99.90
73277;DHT22;61501;43.316;5.372;2024-03-02T11:34:41;15.50;99.90
73277;DHT22;61501;43.316;5.372;2024-03-02T11:37:11;15.60;99.90
73277;DHT22;61501;43.316;5.372;2024-03-02T11:39:38;15.70;99.90
73277;DHT22;61501;43.316;5.372;2024-03-02T11:42:09;15.70;99.90
73277;DHT22;61501;43.316;5.372;2024-03-02T11:44:36;15.90;99.90
73277;DHT22;61501;43.316;5.372;2024-03-02T11:47:06;15.90;99.90
73277;DHT22;61501;43.316;5.372;2024-03-02T11:49:40;15.60;99.90
73277;DHT22;61501;43.316;5.372;2024-03-02T11:52:11;15.60;99.90
73277;DHT22;61501;43.316;5.372;2024-03-02T11:54:38;15.80;99.90
73277;DHT22;61501;43.316;5.372;2024-03-02T11:57:15;15.90;99.90
73277;DHT22;61501;43.316;5.372;2024-03-02T11:59:42;15.90;99.90
73277;DHT22;61501;43.316;5.372;2024-03-02T12:02:15;15.90;99.90
73277;DHT22;61501;43.316;5.372;2024-03-02T12:04:42;16.00;99.90
73277;DHT22;61501;43.316;5.372;2024-03-02T12:07:09;16.20;99.90
73277;DHT22;61501;43.316;5.372;2024-03-02T12:09:35;16.40;99.90
73277;DHT22;61501;43.316;5.372;2024-03-02T12:12:08;16.80;99.90
73277;DHT22;61501;43.316;5.372;2024-03-02T12:14:35;16.50;99.90
73277;DHT22;61501;43.316;5.372;2024-03-02T12:17:01;16.50;99.90
73277;DHT22;61501;43.316;5.372;2024-03-02T12:19:27;18.00;99.90
73277;DHT22;61501;43.316;5.372;2024-03-02T12:21:58;19.10;99.90
73277;DHT22;61501;43.316;5.372;2024-03-02T12:24:27;20.10;99.90
73277;DHT22;61501;43.316;5.372;2024-03-02T12:26:53;19.40;99.90
73277;DHT22;61501;43.316;5.372;2024-03-02T12:29:20;18.70;99.90
73277;DHT22;61501;43.316;5.372;2024-03-02T12:31:51;18.20;99.90
73277;DHT22;61501;43.316;5.372;2024-03-02T12:34:18;18.20;99.90
73277;DHT22;61501;43.316;5.372;2024-03-02T12:36:45;18.50;99.90
73277;DHT22;61501;43.316;5.372;2024-03-02T12:39:13;18.50;99.90
73277;DHT22;61501;43.316;5.372;2024-03-02T12:41:39;18.50;99.90
73277;DHT22;61501;43.316;5.372;2024-03-02T12:44:05;17.80;99.90
73277;DHT22;61501;43.316;5.372;2024-03-02T12:46:32;17.30;99.90
73277;DHT22;61501;43.316;5.372;2024-03-02T12:48:58;17.20;99.90
73277;DHT22;61501;43.316;5.372;2024-03-02T12:51:30;17.20;99.90
73277;DHT22;61501;43.316;5.372;2024-03-02T12:53:57;17.20;99.90
73277;DHT22;61501;43.316;5.372;2024-03-02T12:56:24;17.00;99.90
73277;DHT22;61501;43.316;5.372;2024-03-02T12:58:59;16.70;99.90
73277;DHT22;61501;43.316;5.372;2024-03-02T13:01:25;16.60;99.90
73277;DHT22;61501;43.316;5.372;2024-03-02T13:03:54;16.50;99.90
73277;DHT22;61501;43.316;5.372;2024-03-02T13:06:26;16.60;99.90
73277;DHT22;61501;43.316;5.372;2024-03-02T13:08:55;16.50;99.90
73277;DHT22;61501;43.316;5.372;2024-03-02T13:11:22;16.20;99.90
73277;DHT22;61501;43.316;5.372;2024-03-02T13:13:49;16.20;99.90
73277;DHT22;61501;43.316;5.372;2024-03-02T13:16:15;16.30;99.90
73277;DHT22;61501;43.316;5.372;2024-03-02T13:18:42;16.30;99.90
73277;DHT22;61501;43.316;5.372;2024-03-02T13:21:09;16.50;99.90
73277;DHT22;61501;43.316;5.372;2024-03-02T13:23:35;16.70;99.90
73277;DHT22;61501;43.316;5.372;2024-03-02T13:26:01;16.70;99.90
73277;DHT22;61501;43.316;5.372;2024-03-02T13:28:27;17.10;99.90
73277;DHT22;61501;43.316;5.372;2024-03-02T13:30:52;17.00;99.90
73277;DHT22;61501;43.316;5.372;2024-03-02T13:33:18;17.10;99.90
73277;DHT22;61501;43.316;5.372;2024-03-02T13:35:50;17.20;99.90
73277;DHT22;61501;43.316;5.372;2024-03-02T13:38:20;17.20;99.90
73277;DHT22;61501;43.316;5.372;2024-03-02T13:40:49;17.00;99.90
73277;DHT22;61501;43.316;5.372;2024-03-02T13:43:20;16.80;99.90
73277;DHT22;61501;43.316;5.372;2024-03-02T13:45:46;16.20;99.90
73277;DHT22;61501;43.316;5.372;2024-03-02T13:48:13;16.20;99.90
73277;DHT22;61501;43.316;5.372;2024-03-02T13:50:40;16.10;99.90
73277;DHT22;61501;43.316;5.372;2024-03-02T13:53:06;15.90;99.90
73277;DHT22;61501;43.316;5.372;2024-03-02T13:55:33;15.80;99.90
73277;DHT22;61501;43.316;5.372;2024-03-02T13:57:59;15.60;99.90
73277;DHT22;61501;43.316;5.372;2024-03-02T14:00:25;15.40;99.90
73277;DHT22;61501;43.316;5.372;2024-03-02T14:02:51;15.40;99.90
73277;DHT22;61501;43.316;5.372;2024-03-02T14:05:17;15.50;99.90
73277;DHT22;61501;43.316;5.372;2024-03-02T14:07:44;15.40;99.90
73277;DHT22;61501;43.316;5.372;2024-03-02T14:10:10;15.30;99.90
73277;DHT22;61501;43.316;5.372;2024-03-02T14:12:37;15.40;99.90
73277;DHT22;61501;43.316;5.372;2024-03-02T14:15:03;15.30;99.90
73277;DHT22;61501;43.316;5.372;2024-03-02T14:17:29;15.30;99.90
73277;DHT22;61501;43.316;5.372;2024-03-02T14:19:57;15.30;99.90
73277;DHT22;61501;43.316;5.372;2024-03-02T14:22:24;15.20;99.90
73277;DHT22;61501;43.316;5.372;2024-03-02T14:24:50;15.20;99.90
73277;DHT22;61501;43.316;5.372;2024-03-02T14:27:15;15.10;99.90
73277;DHT22;61501;43.316;5.372;2024-03-02T14:29:42;15.00;99.90
73277;DHT22;61501;43.316;5.372;2024-03-02T14:32:08;15.10;99.90
73277;DHT22;61501;43.316;5.372;2024-03-02T14:34:34;15.10;99.90
73277;DHT22;61501;43.316;5.372;2024-03-02T14:37:00;15.00;99.90
73277;DHT22;61501;43.316;5.372;2024-03-02T14:39:26;14.90;99.90
73277;DHT22;61501;43.316;5.372;2024-03-02T14:41:52;14.90;99.90
73277;DHT22;61501;43.316;5.372;2024-03-02T14:44:18;15.00;99.90
73277;DHT22;61501;43.316;5.372;2024-03-02T14:46:46;14.90;99.90
73277;DHT22;61501;43.316;5.372;2024-03-02T14:49:13;14.90;99.90
73277;DHT22;61501;43.316;5.372;2024-03-02T14:51:39;14.80;99.90
73277;DHT22;61501;43.316;5.372;2024-03-02T14:54:04;14.80;99.90
73277;DHT22;61501;43.316;5.372;2024-03-02T14:56:30;14.70;99.90
73277;DHT22;61501;43.316;5.372;2024-03-02T14:58:55;14.70;99.90
73277;DHT22;61501;43.316;5.372;2024-03-02T15:01:21;14.80;99.90
73277;DHT22;61501;43.316;5.372;2024-03-02T15:03:49;14.70;99.90
73277;DHT22;61501;43.316;5.372;2024-03-02T15:06:15;14.70;99.90
73277;DHT22;61501;43.316;5.372;2024-03-02T15:08:41;14.70;99.90
73277;DHT22;61501;43.316;5.372;2024-03-02T15:11:08;14.70;99.90
73277;DHT22;61501;43.316;5.372;2024-03-02T15:13:34;14.70;99.90
73277;DHT22;61501;43.316;5.372;2024-03-02T15:15:59;14.60;99.90
73277;DHT22;61501;43.316;5.372;2024-03-02T15:18:25;14.70;99.90
73277;DHT22;61501;43.316;5.372;2024-03-02T15:20:51;14.70;99.90
73277;DHT22;61501;43.316;5.372;2024-03-02T15:23:16;14.70;99.90
73277;DHT22;61501;43.316;5.372;2024-03-02T15:25:42;14.60;99.90
73277;DHT22;61501;43.316;5.372;2024-03-02T15:28:08;14.60;99.90
73277;DHT22;61501;43.316;5.372;2024-03-02T15:30:33;14.60;99.90
73277;DHT22;61501;43.316;5.372;2024-03-02T15:32:59;14.50;99.90
73277;DHT22;61501;43.316;5.372;2024-03-02T15:35:24;14.60;99.90